Time;durP1;ratioP1;P1;durP2;ratioP2;P2;SDS_P1;SDS_P2;PMS_P1;PMS_P2;Temp;Humidity;BMP_temperature;BMP_pressure;BME280_temperature;BME280_humidity;BME280_pressure;Samples;Min_cycle;Max_cycle;Signal;HPM_P1;HPM_P2
2023/07/29 00:00:43;;;;;;;12.13;6.57;;;;;;;-143.21;51.20;71443.63;5110277;27;20204;-77
2023/07/29 00:03:10;;;;;;;11.82;6.50;;;;;;;-143.21;51.49;71433.72;5104001;27;20260;-77
2023/07/29 00:05:39;;;;;;;12.25;5.95;;;;;;;-143.21;51.86;71433.72;5110948;28;20268;-77
2023/07/29 00:08:07;;;;;;;15.18;6.40;;;;;;;-143.21;52.08;71443.63;5111361;27;20200;-78
2023/07/29 00:10:36;;;;;;;9.98;6.55;;;;;;;-143.21;52.57;71455.53;5109033;27;20216;-77
2023/07/29 00:13:03;;;;;;;17.92;6.30;;;;;;;-143.21;52.70;71451.56;5124092;27;20217;-78
2023/07/29 00:15:30;;;;;;;13.25;6.50;;;;;;;-143.21;52.36;71455.53;5114706;27;20195;-78
2023/07/29 00:17:57;;;;;;;12.25;5.85;;;;;;;-143.21;52.70;71459.47;5119313;27;20231;-77
2023/07/29 00:20:24;;;;;;;14.05;5.82;;;;;;;-143.21;52.93;71459.47;5108955;27;20202;-77
2023/07/29 00:22:54;;;;;;;10.77;5.80;;;;;;;-143.21;52.25;71431.72;5108454;27;20192;-78
2023/07/29 00:25:21;;;;;;;9.02;6.13;;;;;;;-143.21;51.72;71407.94;5120188;27;20571;-78
2023/07/29 00:27:48;;;;;;;11.95;6.40;;;;;;;-143.21;51.71;71400.00;5110130;27;20207;-77
2023/07/29 00:30:15;;;;;;;10.57;5.90;;;;;;;-143.21;51.54;71398.03;5125339;27;20299;-78
2023/07/29 00:32:41;;;;;;;11.10;7.53;;;;;;;-143.21;51.60;71398.03;5112276;27;20211;-77
2023/07/29 00:35:09;;;;;;;15.20;8.52;;;;;;;-143.21;51.92;71409.91;5113158;27;20207;-78
2023/07/29 00:37:37;;;;;;;11.18;6.47;;;;;;;-143.21;52.62;71417.84;5110830;27;20204;-77
2023/07/29 00:40:16;;;;;;;13.10;6.50;;;;;;;-143.21;52.86;71439.66;5110170;28;20204;-77
2023/07/29 00:42:43;;;;;;;11.15;6.43;;;;;;;-143.21;53.15;71457.50;5109742;28;20290;-77
2023/07/29 00:45:10;;;;;;;14.38;7.28;;;;;;;-143.21;53.20;71461.47;5108813;28;20290;-77
2023/07/29 00:47:37;;;;;;;12.68;6.55;;;;;;;-143.21;53.79;71467.41;5118521;27;20212;-77
2023/07/29 00:50:05;;;;;;;15.77;7.38;;;;;;;-143.21;53.94;71461.47;5112065;28;20216;-77
2023/07/29 00:52:31;;;;;;;10.98;7.55;;;;;;;-143.21;54.04;71467.41;5126470;27;20234;-77
2023/07/29 00:54:58;;;;;;;18.08;7.47;;;;;;;-143.21;54.04;71473.38;5124804;27;20199;-77
2023/07/29 00:57:28;;;;;;;10.75;7.53;;;;;;;-143.21;54.12;71489.22;5109572;28;20241;-77
2023/07/29 00:59:55;;;;;;;14.15;8.30;;;;;;;-143.21;54.56;71493.19;5109793;28;20200;-77
2023/07/29 01:02:22;;;;;;;14.57;8.75;;;;;;;-143.21;54.45;71481.28;5109107;27;20207;-77
2023/07/29 01:04:53;;;;;;;12.82;8.55;;;;;;;-143.21;54.43;71465.44;5120211;27;20678;-77
2023/07/29 01:07:24;;;;;;;15.38;8.73;;;;;;;-143.21;54.27;71463.44;5095781;28;20208;-77
2023/07/29 01:09:59;;;;;;;16.85;10.00;;;;;;;-143.21;54.52;71483.28;5109967;28;20199;-77
2023/07/29 01:12:37;;;;;;;22.30;12.18;;;;;;;-143.21;54.01;71479.31;5109924;28;20732;-78
2023/07/29 01:15:12;;;;;;;18.83;11.77;;;;;;;-143.21;54.19;71481.28;5109062;28;20231;-77
2023/07/29 01:17:44;;;;;;;15.20;10.88;;;;;;;-143.21;54.04;71481.28;5108406;28;20685;-78
2023/07/29 01:20:15;;;;;;;17.08;9.73;;;;;;;-143.21;53.67;71479.31;5110638;28;20589;-78
2023/07/29 01:22:43;;;;;;;15.07;9.38;;;;;;;-143.21;53.65;71481.28;5110217;28;20212;-77
2023/07/29 01:25:11;;;;;;;14.57;8.88;;;;;;;-143.21;53.69;71483.28;5109958;28;20705;-78
2023/07/29 01:27:38;;;;;;;10.30;7.35;;;;;;;-143.21;53.37;71471.38;5108893;28;20204;-78
2023/07/29 01:30:07;;;;;;;11.43;7.78;;;;;;;-143.21;53.16;71477.34;5110865;28;20200;-78
2023/07/29 01:32:40;;;;;;;12.48;8.27;;;;;;;-143.21;53.14;71471.38;5110584;28;20206;-78
2023/07/29 01:35:16;;;;;;;12.90;7.82;;;;;;;-143.21;53.04;71473.38;5109858;28;20223;-78
2023/07/29 01:37:45;;;;;;;12.20;8.13;;;;;;;-143.21;53.23;71487.25;5105938;27;20210;-77
2023/07/29 01:40:14;;;;;;;9.20;6.80;;;;;;;-143.21;53.04;71473.38;5113264;28;20260;-78
2023/07/29 01:42:41;;;;;;;13.70;8.20;;;;;;;-143.21;53.61;71481.28;5113716;27;20200;-77
2023/07/29 01:45:08;;;;;;;13.20;7.90;;;;;;;-143.21;53.93;71511.03;5117287;27;20215;-78
2023/07/29 01:47:36;;;;;;;10.60;7.70;;;;;;;-143.21;54.19;71528.88;5113467;27;20716;-78
2023/07/29 01:50:04;;;;;;;10.50;6.80;;;;;;;-143.21;54.62;71536.81;5126359;27;20286;-77
2023/07/29 01:52:30;;;;;;;8.77;6.10;;;;;;;-143.21;54.90;71566.56;5112594;27;20231;-77
2023/07/29 01:54:57;;;;;;;8.20;5.50;;;;;;;-143.21;55.11;71568.53;5113332;27;20206;-77
2023/07/29 01:57:25;;;;;;;7.03;5.05;;;;;;;-143.21;54.96;71566.56;5118268;27;20256;-78
2023/07/29 01:59:52;;;;;;;8.48;5.68;;;;;;;-143.21;55.22;71578.44;5123387;27;20698;-77
2023/07/29 02:02:19;;;;;;;6.97;5.43;;;;;;;-143.21;55.64;71590.34;5114721;27;20204;-77
2023/07/29 02:04:51;;;;;;;9.63;6.38;;;;;;;-143.21;56.35;71586.38;5126385;27;20627;-77
2023/07/29 02:07:18;;;;;;;11.77;5.65;;;;;;;-143.21;56.21;71578.44;5114711;27;20630;-77
2023/07/29 02:09:44;;;;;;;9.93;5.80;;;;;;;-143.21;56.11;71576.47;5112271;27;20207;-77
2023/07/29 02:12:11;;;;;;;10.13;5.88;;;;;;;-143.21;56.47;71578.44;5127069;27;20211;-77
2023/07/29 02:14:40;;;;;;;9.45;6.05;;;;;;;-143.21;57.01;71590.34;5113619;27;20223;-77
2023/07/29 02:17:06;;;;;;;13.30;6.45;;;;;;;-143.21;56.90;71598.28;5113152;27;20196;-77
2023/07/29 02:19:33;;;;;;;13.75;6.00;;;;;;;-143.21;56.74;71606.22;5113056;27;20219;-77
2023/07/29 02:22:00;;;;;;;16.27;6.35;;;;;;;-143.21;57.13;71612.16;5112647;27;20214;-77
2023/07/29 02:24:27;;;;;;;10.30;5.60;;;;;;;-143.21;57.06;71606.22;5112549;27;20229;-79
2023/07/29 02:26:53;;;;;;;8.98;5.88;;;;;;;-143.21;57.18;71610.16;5112153;28;20693;-78
2023/07/29 02:29:21;;;;;;;8.57;5.93;;;;;;;-143.21;57.09;71598.28;5125779;27;20227;-78
2023/07/29 02:31:49;;;;;;;8.60;6.07;;;;;;;-143.21;56.82;71594.31;5112221;27;20261;-78
2023/07/29 02:34:16;;;;;;;7.53;5.10;;;;;;;-143.21;56.97;71592.31;5112574;27;20665;-79
2023/07/29 02:36:43;;;;;;;7.43;5.38;;;;;;;-143.21;57.16;71590.34;5113613;27;20203;-78
2023/07/29 02:39:09;;;;;;;10.52;5.80;;;;;;;-143.21;57.26;71598.28;5112562;27;20220;-78
2023/07/29 02:41:36;;;;;;;9.60;5.55;;;;;;;-143.21;57.37;71602.25;5112621;28;20290;-78
2023/07/29 02:44:04;;;;;;;6.63;5.13;;;;;;;-143.21;57.54;71602.25;5113221;27;20646;-77
2023/07/29 02:46:31;;;;;;;6.72;5.18;;;;;;;-143.21;57.12;71588.38;5111550;28;20211;-78
2023/07/29 02:48:59;;;;;;;8.18;5.78;;;;;;;-143.21;56.57;71580.44;5111053;27;20204;-78
2023/07/29 02:51:26;;;;;;;12.30;6.53;;;;;;;-143.21;56.87;71582.41;5115719;27;20231;-78
2023/07/29 02:53:52;;;;;;;12.63;6.70;;;;;;;-143.21;56.81;71586.38;5111750;27;20208;-78
2023/07/29 02:56:19;;;;;;;11.85;6.55;;;;;;;-143.21;56.95;71594.31;5111781;27;20625;-78
2023/07/29 02:58:46;;;;;;;10.55;6.65;;;;;;;-143.21;57.23;71606.22;5111530;27;20592;-79
2023/07/29 03:01:13;;;;;;;7.65;6.07;;;;;;;-143.21;57.17;71596.28;5112687;27;20343;-77
2023/07/29 03:03:40;;;;;;;7.40;5.90;;;;;;;-143.21;57.19;71606.22;5111977;27;20677;-78
2023/07/29 03:06:10;;;;;;;8.40;5.80;;;;;;;-143.21;57.37;71618.09;5112371;28;20236;-79
2023/07/29 03:08:37;;;;;;;8.65;5.03;;;;;;;-143.21;57.42;71620.09;5112899;27;20201;-79
2023/07/29 03:11:07;;;;;;;12.68;6.00;;;;;;;-143.21;57.66;71630.00;5112195;28;20673;-78
2023/07/29 03:13:33;;;;;;;10.10;5.38;;;;;;;-143.21;57.75;71637.94;5112664;28;20295;-79
2023/07/29 03:16:06;;;;;;;10.18;5.07;;;;;;;-143.21;58.05;71651.81;5114130;27;20268;-79
2023/07/29 03:18:33;;;;;;;9.00;4.90;;;;;;;-143.21;58.14;71653.78;5112207;28;20314;-79
2023/07/29 03:21:00;;;;;;;8.45;5.20;;;;;;;-143.21;58.55;71667.66;5115039;27;20207;-79
2023/07/29 03:23:28;;;;;;;23.88;5.22;;;;;;;-143.21;58.93;71671.63;5111160;27;20208;-79
2023/07/29 03:25:57;;;;;;;6.78;4.72;;;;;;;-143.21;58.78;71663.72;5127554;27;20203;-79
2023/07/29 03:28:24;;;;;;;7.07;4.70;;;;;;;-143.21;59.06;71669.66;5126848;27;20191;-78
2023/07/29 03:30:52;;;;;;;8.50;4.90;;;;;;;-143.21;59.07;71665.69;5115630;27;20211;-78
2023/07/29 03:33:19;;;;;;;6.95;4.63;;;;;;;-143.21;59.08;71679.56;5112261;27;20208;-79
2023/07/29 03:35:46;;;;;;;9.20;5.10;;;;;;;-143.21;59.26;71681.56;5118196;27;20200;-78
2023/07/29 03:38:13;;;;;;;8.40;5.38;;;;;;;-143.21;59.39;71685.50;5111611;27;20203;-79
2023/07/29 03:40:41;;;;;;;6.88;4.88;;;;;;;-143.21;59.21;71687.50;5111772;27;20219;-78
2023/07/29 03:43:08;;;;;;;7.10;4.80;;;;;;;-143.21;58.80;71685.50;5110385;27;20211;-77
2023/07/29 03:45:36;;;;;;;5.72;4.47;;;;;;;-143.21;58.03;71657.75;5111990;27;20214;-77
2023/07/29 03:48:04;;;;;;;8.52;4.70;;;;;;;-143.21;56.71;71622.06;5116738;27;20199;-77
2023/07/29 03:50:32;;;;;;;6.97;4.63;;;;;;;-143.21;56.40;71604.22;5118811;27;20290;-78
2023/07/29 03:52:58;;;;;;;7.32;4.82;;;;;;;-143.21;55.82;71598.28;5111152;28;20203;-78
2023/07/29 03:55:25;;;;;;;7.75;4.60;;;;;;;-143.21;55.76;71588.38;5111403;27;20200;-78
2023/07/29 03:57:53;;;;;;;6.88;4.35;;;;;;;-143.21;55.69;71594.31;5123168;27;20206;-78
2023/07/29 04:00:20;;;;;;;8.05;4.60;;;;;;;-143.21;55.88;71604.22;5110428;27;20231;-78
2023/07/29 04:02:47;;;;;;;6.90;4.55;;;;;;;-143.21;56.39;71618.09;5110423;27;20200;-77
2023/07/29 04:05:14;;;;;;;5.97;4.65;;;;;;;-143.21;56.56;71633.97;5115088;27;20599;-78
2023/07/29 04:07:41;;;;;;;8.73;5.13;;;;;;;-143.21;56.77;71651.81;5120835;27;20200;-78
2023/07/29 04:10:09;;;;;;;5.38;4.55;;;;;;;-143.21;57.08;71659.75;5110344;27;20203;-78
2023/07/29 04:12:35;;;;;;;6.30;4.63;;;;;;;-143.21;57.30;71667.66;5109782;27;20231;-77
2023/07/29 04:15:04;;;;;;;7.55;4.75;;;;;;;-143.21;57.18;71667.66;5109386;27;20204;-77
2023/07/29 04:17:31;;;;;;;7.80;4.57;;;;;;;-143.21;57.45;71667.66;5119914;27;20706;-78
2023/07/29 04:19:58;;;;;;;8.85;4.63;;;;;;;-143.21;57.42;71665.69;5109328;28;20238;-78
2023/07/29 04:22:24;;;;;;;8.00;4.82;;;;;;;-143.21;57.53;71663.72;5110575;27;20981;-78
2023/07/29 04:24:51;;;;;;;7.22;5.07;;;;;;;-143.21;57.34;71653.78;5110710;27;20204;-78
2023/07/29 04:27:18;;;;;;;6.63;4.72;;;;;;;-143.21;57.40;71655.78;5110297;27;20211;-78
2023/07/29 04:29:45;;;;;;;5.57;4.80;;;;;;;-143.21;57.29;71639.91;5110369;28;20211;-79
2023/07/29 04:32:13;;;;;;;10.82;5.95;;;;;;;-143.21;56.67;71614.13;5110486;27;20204;-78
2023/07/29 04:34:40;;;;;;;8.63;5.35;;;;;;;-143.21;56.37;71600.25;5109377;27;20207;-77
2023/07/29 04:37:07;;;;;;;9.75;5.40;;;;;;;-143.21;56.27;71594.31;5108045;27;20222;-77
2023/07/29 04:39:34;;;;;;;8.90;5.53;;;;;;;-143.21;56.08;71592.31;5108797;28;20281;-76
2023/07/29 04:42:01;;;;;;;8.88;6.15;;;;;;;-143.21;56.40;71602.25;5109419;27;20291;-76
2023/07/29 04:44:28;;;;;;;13.50;6.53;;;;;;;-143.21;56.40;71614.13;5109612;28;20231;-77
2023/07/29 04:46:55;;;;;;;10.45;6.38;;;;;;;-143.21;56.42;71608.19;5113169;27;20258;-76
2023/07/29 04:49:23;;;;;;;11.73;6.68;;;;;;;-143.21;56.79;71606.22;5109246;28;20601;-77
2023/07/29 04:51:50;;;;;;;10.15;6.70;;;;;;;-143.21;56.66;71612.16;5122556;27;20317;-76
2023/07/29 04:54:16;;;;;;;10.25;6.93;;;;;;;-143.21;56.62;71606.22;5109305;28;20203;-76
2023/07/29 04:56:43;;;;;;;11.73;6.60;;;;;;;-143.21;57.03;71600.25;5123291;27;20257;-76
2023/07/29 04:59:12;;;;;;;13.45;6.05;;;;;;;-143.21;56.98;71596.28;5110411;28;20260;-76
2023/07/29 05:01:39;;;;;;;14.73;6.45;;;;;;;-143.21;56.65;71594.31;5114587;27;20203;-78
2023/07/29 05:04:06;;;;;;;11.38;6.78;;;;;;;-143.21;56.52;71586.38;5119100;27;20207;-78
2023/07/29 05:06:34;;;;;;;10.40;6.55;;;;;;;-143.21;56.74;71592.31;5110348;28;20660;-78
2023/07/29 05:09:13;;;;;;;10.13;6.25;;;;;;;-143.21;56.77;71598.28;5110236;28;20200;-78
2023/07/29 05:11:40;;;;;;;10.27;6.72;;;;;;;-143.21;57.04;71596.28;5109880;27;20188;-78
2023/07/29 05:14:09;;;;;;;7.88;6.40;;;;;;;-143.21;57.53;71608.19;5114759;27;20335;-79
2023/07/29 05:16:36;;;;;;;10.23;6.82;;;;;;;-143.21;57.50;71608.19;5115335;27;20318;-79
2023/07/29 05:19:02;;;;;;;11.07;6.95;;;;;;;-143.21;57.30;71614.13;5115369;27;20203;-78
2023/07/29 05:21:29;;;;;;;12.48;7.10;;;;;;;-143.21;57.21;71614.13;5115622;27;20235;-78
2023/07/29 05:23:57;;;;;;;14.85;7.50;;;;;;;-143.21;56.84;71596.28;5125322;27;20207;-78
2023/07/29 05:26:24;;;;;;;10.48;6.60;;;;;;;-143.21;57.00;71594.31;5117534;27;20203;-78
2023/07/29 05:28:51;;;;;;;12.43;7.50;;;;;;;-143.21;56.82;71574.47;5113556;27;20223;-78
2023/07/29 05:31:18;;;;;;;13.50;7.03;;;;;;;-143.21;56.54;71570.53;5114212;27;20212;-78
2023/07/29 05:33:45;;;;;;;11.90;8.20;;;;;;;-143.21;56.49;71562.59;5112940;27;20286;-77
2023/07/29 05:36:12;;;;;;;12.90;8.00;;;;;;;-143.21;55.72;71532.84;5118768;27;20194;-76
2023/07/29 05:38:39;;;;;;;11.70;7.03;;;;;;;-143.21;54.77;71511.03;5123988;27;20265;-77
2023/07/29 05:41:07;;;;;;;12.85;7.50;;;;;;;-143.21;54.64;71489.22;5113941;27;20234;-76
2023/07/29 05:43:33;;;;;;;16.95;7.35;;;;;;;-143.21;54.48;71487.25;5114469;27;20199;-77
2023/07/29 05:46:00;;;;;;;8.82;6.97;;;;;;;-143.21;54.75;71487.25;5113614;27;20200;-77
2023/07/29 05:48:28;;;;;;;13.52;6.55;;;;;;;-143.21;54.51;71487.25;5121836;27;20207;-78
2023/07/29 05:50:55;;;;;;;10.45;6.75;;;;;;;-143.21;54.82;71481.28;5113573;27;20227;-78
2023/07/29 05:53:22;;;;;;;12.57;7.53;;;;;;;-143.21;54.68;71483.28;5101232;27;20206;-78
2023/07/29 05:55:49;;;;;;;10.45;6.82;;;;;;;-143.21;54.12;71471.38;5115347;27;20208;-78
2023/07/29 05:58:17;;;;;;;11.18;7.57;;;;;;;-143.21;53.79;71469.41;5121838;27;20286;-77
2023/07/29 06:00:44;;;;;;;15.23;7.07;;;;;;;-143.21;53.99;71469.41;5126449;27;20227;-77
2023/07/29 06:03:12;;;;;;;10.52;6.50;;;;;;;-143.21;53.23;71459.47;5115277;27;20227;-78
2023/07/29 06:05:40;;;;;;;12.40;7.30;;;;;;;-143.21;53.38;71459.47;5114667;27;20203;-78
2023/07/29 06:08:08;;;;;;;8.77;6.88;;;;;;;-143.21;53.23;71447.59;5114045;27;20207;-78
2023/07/29 06:10:35;;;;;;;13.13;6.72;;;;;;;-143.21;53.23;71439.66;5113288;27;20218;-78
2023/07/29 06:13:02;;;;;;;10.30;6.78;;;;;;;-143.21;53.51;71435.69;5113856;27;20223;-79
2023/07/29 06:15:30;;;;;;;13.88;6.90;;;;;;;-143.21;53.10;71423.78;5114090;27;20212;-79
2023/07/29 06:18:00;;;;;;;15.27;7.53;;;;;;;-143.21;52.76;71421.81;5114150;27;20546;-78
2023/07/29 06:20:27;;;;;;;9.32;7.00;;;;;;;-143.21;53.06;71423.78;5113923;27;20729;-79
2023/07/29 06:22:54;;;;;;;13.80;7.45;;;;;;;-143.21;53.00;71413.88;5111554;27;20204;-78
2023/07/29 06:25:22;;;;;;;8.93;6.90;;;;;;;-143.21;53.29;71403.97;5109741;27;20212;-78
2023/07/29 06:27:49;;;;;;;8.80;6.35;;;;;;;-143.21;53.37;71392.06;5124868;27;20258;-78
2023/07/29 06:30:15;;;;;;;11.57;6.60;;;;;;;-143.21;53.09;71384.16;5109599;27;20199;-79
2023/07/29 06:32:43;;;;;;;10.80;6.13;;;;;;;-143.21;51.83;71340.53;5111867;27;20206;-79
2023/07/29 06:35:10;;;;;;;10.32;6.03;;;;;;;-143.21;51.33;71310.78;5118289;27;20252;-79
2023/07/29 06:37:37;;;;;;;9.35;6.00;;;;;;;-143.21;50.88;71285.03;5110714;27;20200;-79
2023/07/29 06:40:05;;;;;;;17.13;6.40;;;;;;;-143.21;50.17;71269.16;5110793;27;20223;-79
2023/07/29 06:42:32;;;;;;;8.05;5.80;;;;;;;-143.21;49.42;71265.19;5109700;27;20204;-78
2023/07/29 06:44:58;;;;;;;11.20;6.30;;;;;;;-143.21;49.18;71257.25;5109537;27;20204;-79
2023/07/29 06:47:25;;;;;;;9.50;5.57;;;;;;;-143.21;49.19;71245.38;5108798;27;20217;-79
2023/07/29 06:49:55;;;;;;;8.98;5.80;;;;;;;-143.21;48.97;71241.41;5109400;27;20204;-79
2023/07/29 06:52:21;;;;;;;7.40;5.50;;;;;;;-143.21;49.00;71237.44;5109154;28;20259;-79
2023/07/29 06:54:48;;;;;;;9.63;6.40;;;;;;;-143.21;48.57;71233.47;5119342;27;20625;-79
2023/07/29 06:57:15;;;;;;;7.68;5.45;;;;;;;-143.21;48.21;71223.56;5111082;27;20727;-80
2023/07/29 06:59:42;;;;;;;10.52;5.57;;;;;;;-143.21;48.02;71219.59;5111661;27;20199;-81
2023/07/29 07:02:08;;;;;;;10.57;6.30;;;;;;;-143.21;48.45;71215.63;5110752;27;20199;-83
2023/07/29 07:04:35;;;;;;;8.15;6.38;;;;;;;-143.21;48.65;71209.69;5110917;27;20211;-80
2023/07/29 07:07:04;;;;;;;9.57;6.00;;;;;;;-143.21;48.58;71205.72;5100219;27;20215;-81
2023/07/29 07:09:31;;;;;;;12.18;6.22;;;;;;;-143.21;48.14;71193.81;5121881;27;20878;-80
2023/07/29 07:11:57;;;;;;;10.45;6.30;;;;;;;-143.21;48.08;71170.03;5110065;27;20208;-78
2023/07/29 07:14:25;;;;;;;9.63;6.22;;;;;;;-143.21;47.23;71150.22;5109194;27;20204;-79
2023/07/29 07:16:52;;;;;;;7.63;6.10;;;;;;;-143.21;46.61;71134.34;5121698;27;20207;-79
2023/07/29 07:19:19;;;;;;;12.15;5.93;;;;;;;-143.21;47.03;71142.28;5110434;27;20208;-78
2023/07/29 07:21:45;;;;;;;9.88;6.05;;;;;;;-143.21;47.05;71126.41;5108045;27;20876;-78
2023/07/29 07:24:14;;;;;;;9.05;5.75;;;;;;;-143.21;46.74;71100.66;5108837;27;20208;-78
2023/07/29 07:26:40;;;;;;;10.65;5.80;;;;;;;-143.21;46.65;71086.75;5110331;27;20597;-78
2023/07/29 07:29:07;;;;;;;13.65;6.00;;;;;;;-143.21;46.21;71074.88;5113123;27;20202;-78
2023/07/29 07:31:35;;;;;;;10.25;5.85;;;;;;;-143.21;46.12;71068.94;5113058;27;20674;-77
2023/07/29 07:34:04;;;;;;;8.23;6.13;;;;;;;-143.21;45.99;71066.94;5106706;27;20287;-78
2023/07/29 07:36:31;;;;;;;6.72;5.50;;;;;;;-143.21;45.21;71072.88;5118378;27;20260;-78
2023/07/29 07:38:58;;;;;;;12.98;5.80;;;;;;;-143.21;45.57;71074.88;5107489;27;20204;-78
2023/07/29 07:41:26;;;;;;;9.20;5.78;;;;;;;-143.21;46.02;71070.91;5108800;27;20232;-77
2023/07/29 07:43:53;;;;;;;8.32;5.63;;;;;;;-143.21;46.40;71072.88;5108765;27;20212;-77
2023/07/29 07:46:20;;;;;;;9.23;5.60;;;;;;;-143.21;46.17;71053.06;5107800;27;20197;-77
2023/07/29 07:48:46;;;;;;;17.83;5.63;;;;;;;-143.21;46.26;71031.25;5108141;27;20227;-77
2023/07/29 07:51:14;;;;;;;12.20;5.32;;;;;;;-143.21;45.85;71023.34;5107478;27;20603;-77
2023/07/29 07:53:41;;;;;;;13.20;5.80;;;;;;;-143.21;45.38;71005.50;5108349;27;20199;-76
2023/07/29 07:56:08;;;;;;;12.32;5.82;;;;;;;-143.21;45.24;70997.56;5107352;27;20291;-77
2023/07/29 07:58:36;;;;;;;7.82;4.97;;;;;;;-143.21;44.17;70993.59;5119925;27;20200;-77
2023/07/29 08:01:04;;;;;;;8.20;5.38;;;;;;;-143.21;43.88;70983.69;5119781;27;20605;-77
2023/07/29 08:03:31;;;;;;;5.93;4.70;;;;;;;-143.21;43.96;70981.69;5112766;27;20272;-77
2023/07/29 08:05:58;;;;;;;10.30;5.00;;;;;;;-143.21;43.52;70959.91;5111186;27;20209;-77
2023/07/29 08:08:25;;;;;;;8.13;4.57;;;;;;;-143.21;43.69;70961.88;5107040;28;20208;-77
2023/07/29 08:10:53;;;;;;;6.00;4.47;;;;;;;-143.21;43.43;70948.00;5107831;27;20659;-76
2023/07/29 08:13:19;;;;;;;9.07;4.95;;;;;;;-143.21;43.61;70946.03;5108111;27;20212;-77
2023/07/29 08:15:48;;;;;;;12.00;5.63;;;;;;;-143.21;42.96;70951.97;5108248;27;20211;-76
2023/07/29 08:18:15;;;;;;;8.65;5.13;;;;;;;-143.21;43.20;70949.97;5106451;27;20218;-76
2023/07/29 08:20:42;;;;;;;8.70;5.00;;;;;;;-143.21;43.53;70942.06;5108464;27;20231;-77
2023/07/29 08:23:09;;;;;;;8.50;5.88;;;;;;;-143.21;42.91;70924.22;5108257;27;20199;-77
2023/07/29 08:25:36;;;;;;;9.27;5.75;;;;;;;-143.21;43.26;70922.22;5108357;27;20265;-76
2023/07/29 08:28:03;;;;;;;7.97;5.50;;;;;;;-143.21;43.31;70900.41;5107273;27;20211;-76
2023/07/29 08:30:30;;;;;;;9.13;5.43;;;;;;;-143.21;42.43;70880.59;5107965;27;20199;-76
2023/07/29 08:32:58;;;;;;;9.52;4.80;;;;;;;-143.21;41.14;70866.72;5108977;27;20214;-76
2023/07/29 08:35:25;;;;;;;8.35;4.25;;;;;;;-143.21;41.33;70862.75;5122560;27;20199;-76
2023/07/29 08:37:51;;;;;;;5.63;4.50;;;;;;;-143.21;41.24;70860.78;5113549;27;20214;-76
2023/07/29 08:40:18;;;;;;;7.63;4.60;;;;;;;-143.21;41.16;70837.00;5107760;28;20220;-76
2023/07/29 08:42:49;;;;;;;9.40;5.28;;;;;;;-143.21;40.96;70817.16;5107514;28;20245;-76
2023/07/29 08:45:18;;;;;;;7.47;4.72;;;;;;;-143.21;40.76;70813.19;5115146;27;20203;-76
2023/07/29 08:47:45;;;;;;;7.35;4.25;;;;;;;-143.21;40.89;70823.13;5111317;27;20200;-76
2023/07/29 08:50:14;;;;;;;7.70;4.30;;;;;;;-143.21;40.27;70823.13;5113856;27;20215;-79
2023/07/29 08:52:42;;;;;;;8.07;4.00;;;;;;;-143.21;40.41;70807.25;5107316;28;20612;-78
2023/07/29 08:55:09;;;;;;;5.28;4.45;;;;;;;-143.21;40.17;70803.28;5108719;28;20208;-80
2023/07/29 08:57:36;;;;;;;5.65;3.85;;;;;;;-143.21;39.66;70799.31;5120213;27;20211;-80
2023/07/29 09:00:04;;;;;;;6.03;4.25;;;;;;;-143.21;39.23;70793.38;5109881;28;20207;-80
2023/07/29 09:02:31;;;;;;;3.95;2.95;;;;;;;-143.21;36.92;70793.38;5109845;27;20663;-81
2023/07/29 09:04:57;;;;;;;5.03;2.80;;;;;;;-143.21;37.50;70789.41;5110315;28;20206;-80
2023/07/29 09:07:27;;;;;;;4.47;3.40;;;;;;;-143.21;37.38;70761.66;5110058;28;20196;-81
2023/07/29 09:09:53;;;;;;;4.22;3.20;;;;;;;-143.21;37.49;70747.78;5109382;28;20208;-80
2023/07/29 09:12:21;;;;;;;6.35;3.17;;;;;;;-143.21;36.77;70722.03;5111006;28;20204;-79
2023/07/29 09:14:47;;;;;;;4.72;3.30;;;;;;;-143.21;36.44;70725.97;5109447;28;20674;-80
2023/07/29 09:17:15;;;;;;;8.40;3.60;;;;;;;-143.21;37.36;70718.06;5109401;28;20602;-80
2023/07/29 09:19:42;;;;;;;3.42;3.10;;;;;;;-143.21;37.06;70700.22;5108914;28;20203;-80
2023/07/29 09:22:18;;;;;;;6.35;3.75;;;;;;;-143.21;37.03;70690.31;5108040;28;20226;-80
2023/07/29 09:24:47;;;;;;;8.82;3.42;;;;;;;-143.21;37.30;70688.31;5113311;28;20950;-80
2023/07/29 09:27:24;;;;;;;3.92;3.10;;;;;;;-143.21;37.30;70666.50;5107551;28;20200;-81
2023/07/29 09:29:51;;;;;;;4.13;3.25;;;;;;;-143.21;36.63;70662.56;5121179;28;20230;-80
2023/07/29 09:32:20;;;;;;;3.65;3.10;;;;;;;-143.21;36.42;70654.63;5108996;28;20204;-80
2023/07/29 09:34:47;;;;;;;8.48;3.67;;;;;;;-143.21;35.87;70638.75;5109191;28;20228;-80
2023/07/29 09:37:18;;;;;;;4.78;2.92;;;;;;;-143.21;35.19;70644.72;5109110;28;20212;-78
2023/07/29 09:39:47;;;;;;;5.53;2.80;;;;;;;-143.21;35.67;70636.78;5109391;28;20295;-81
2023/07/29 09:42:19;;;;;;;3.45;2.80;;;;;;;-143.21;35.71;70634.81;5109793;28;20228;-80
2023/07/29 09:44:46;;;;;;;3.08;2.40;;;;;;;-143.21;35.00;70613.00;5108756;28;20200;-81
2023/07/29 09:47:21;;;;;;;3.10;2.70;;;;;;;-143.21;34.87;70607.06;5109209;28;20200;-81
2023/07/29 09:49:48;;;;;;;2.83;2.47;;;;;;;-143.21;34.73;70601.09;5109481;28;20299;-81
2023/07/29 09:52:16;;;;;;;3.75;2.50;;;;;;;-143.21;34.89;70618.94;5109324;28;20323;-80
2023/07/29 09:54:44;;;;;;;3.80;2.30;;;;;;;-143.21;33.93;70597.13;5109278;28;20275;-81
2023/07/29 09:57:14;;;;;;;4.45;3.30;;;;;;;-143.21;34.56;70563.44;5109803;28;20230;-80
2023/07/29 09:59:41;;;;;;;5.10;3.30;;;;;;;-143.21;34.82;70569.38;5113177;27;20200;-80
2023/07/29 10:02:14;;;;;;;5.82;2.60;;;;;;;-143.21;33.48;70563.44;5111925;28;20224;-81
2023/07/29 10:04:42;;;;;;;6.00;2.40;;;;;;;-143.21;33.46;70543.63;5112886;28;20211;-81
2023/07/29 10:07:10;;;;;;;3.55;2.35;;;;;;;-143.21;33.14;70507.94;5117730;27;20207;-78
2023/07/29 10:09:40;;;;;;;3.35;2.88;;;;;;;-143.21;33.82;70513.88;5113035;27;20211;-78
2023/07/29 10:12:08;;;;;;;3.70;2.78;;;;;;;-143.21;33.18;70507.94;5112391;27;20199;-78
2023/07/29 10:14:38;;;;;;;2.55;2.00;;;;;;;-143.21;32.90;70502.00;5112750;27;20196;-78
2023/07/29 10:17:06;;;;;;;2.85;1.90;;;;;;;-143.21;32.43;70468.31;5111360;27;20290;-78
2023/07/29 10:19:33;;;;;;;4.03;2.40;;;;;;;-143.21;32.37;70440.56;5111893;27;20585;-78
2023/07/29 10:22:02;;;;;;;4.72;2.20;;;;;;;-143.21;32.59;70428.66;5112294;27;20227;-78
2023/07/29 10:24:31;;;;;;;4.40;2.20;;;;;;;-143.21;32.20;70402.91;5112434;27;20204;-78
2023/07/29 10:27:00;;;;;;;8.00;3.92;;;;;;;-143.21;32.78;70404.88;5113173;27;20207;-78
2023/07/29 10:29:32;;;;;;;8.30;4.93;;;;;;;-143.21;32.44;70422.72;5113000;27;20196;-77
2023/07/29 10:32:04;;;;;;;2.70;2.20;;;;;;;-143.21;31.91;70396.94;5112625;27;20287;-78
2023/07/29 10:34:32;;;;;;;7.07;2.67;;;;;;;-143.21;31.13;70353.34;5119182;27;20635;-78
2023/07/29 10:37:00;;;;;;;4.60;2.30;;;;;;;-143.21;31.55;70335.50;5112217;27;20253;-79
2023/07/29 10:39:27;;;;;;;3.40;2.10;;;;;;;-143.21;30.36;70303.78;5111884;27;20264;-78
2023/07/29 10:41:58;;;;;;;1.92;1.70;;;;;;;-143.21;30.01;70274.06;5111582;27;20729;-79
2023/07/29 10:44:49;;;;;;;3.17;2.28;;;;;;;-143.21;30.49;70244.34;5120246;27;20862;-81
2023/07/29 10:47:18;;;;;;;4.63;2.20;;;;;;;-143.21;30.73;70278.03;5127482;27;20206;-78
2023/07/29 10:49:46;;;;;;;3.20;1.77;;;;;;;-143.21;30.38;70291.91;5110880;27;20196;-78
2023/07/29 10:52:14;;;;;;;4.55;1.63;;;;;;;-143.21;30.02;70260.19;5110535;27;20346;-78
2023/07/29 10:54:45;;;;;;;1.92;1.40;;;;;;;-143.21;28.97;70240.38;5111416;27;20638;-78
2023/07/29 10:57:15;;;;;;;4.63;1.70;;;;;;;-143.21;28.39;70208.66;5111406;27;20635;-78
2023/07/29 10:59:53;;;;;;;2.85;1.48;;;;;;;-143.21;28.00;70157.13;5111599;27;20287;-78
2023/07/29 11:02:22;;;;;;;3.17;1.45;;;;;;;-143.21;27.77;70089.75;5107861;27;20320;-78
2023/07/29 11:04:50;;;;;;;1.73;1.30;;;;;;;-143.21;27.54;70046.16;5111413;27;20200;-78
2023/07/29 11:07:26;;;;;;;1.95;1.75;;;;;;;-143.21;27.42;70000.56;5122888;27;20761;-78
2023/07/29 11:09:55;;;;;;;2.83;1.83;;;;;;;-143.21;26.77;70010.47;5111747;27;20195;-78
2023/07/29 11:12:43;;;;;;;3.75;1.50;;;;;;;-143.21;26.97;70028.31;5111965;27;20200;-78
2023/07/29 11:15:15;;;;;;;1.83;1.60;;;;;;;-143.21;26.87;70022.38;5119011;27;20203;-78
2023/07/29 11:17:45;;;;;;;3.75;1.70;;;;;;;-143.21;27.18;70024.34;5111628;27;20647;-78